Time;durP1;ratioP1;P1;durP2;ratioP2;P2;SDS_P1;SDS_P2;PMS_P1;PMS_P2;Temp;Humidity;BMP_temperature;BMP_pressure;BME280_temperature;BME280_humidity;BME280_pressure;Samples;Min_cycle;Max_cycle;Signal;HPM_P1;HPM_P2
2022/08/29 00:01:22;;;;;;;;;;;22.90;74.80;;;;;;5054129;28;1376;-68
2022/08/29 00:03:48;;;;;;;;;;;22.80;74.70;;;;;;5072096;28;1650;-68
2022/08/29 00:06:13;;;;;;;;;;;22.80;74.70;;;;;;5072580;28;1350;-68
2022/08/29 00:08:38;;;;;;;;;;;22.90;74.80;;;;;;5072158;28;1717;-68
2022/08/29 00:11:05;;;;;;;;;;;22.90;74.80;;;;;;5071837;28;1656;-68
2022/08/29 00:13:31;;;;;;;;;;;22.80;74.70;;;;;;5073774;28;1525;-68
2022/08/29 00:15:56;;;;;;;;;;;22.90;74.80;;;;;;5058169;28;1399;-68
2022/08/29 00:18:22;;;;;;;;;;;22.90;74.80;;;;;;5075610;28;1574;-68
2022/08/29 00:20:47;;;;;;;;;;;22.80;74.70;;;;;;5075540;28;1910;-68
2022/08/29 00:23:12;;;;;;;;;;;22.80;74.80;;;;;;5075422;28;1688;-68
2022/08/29 00:25:38;;;;;;;;;;;22.90;74.80;;;;;;5075885;28;1692;-68
2022/08/29 00:28:03;;;;;;;;;;;22.80;74.80;;;;;;5063916;28;1733;-68
2022/08/29 00:30:29;;;;;;;;;;;22.90;74.90;;;;;;5057872;28;1662;-68
2022/08/29 00:32:55;;;;;;;;;;;22.80;74.80;;;;;;5057097;28;1668;-68
2022/08/29 00:35:30;;;;;;;;;;;22.80;74.80;;;;;;5075787;28;1673;-68
2022/08/29 00:37:56;;;;;;;;;;;22.80;74.80;;;;;;5068498;28;1875;-68
2022/08/29 00:40:29;;;;;;;;;;;22.80;75.50;;;;;;5068254;28;1910;-68
2022/08/29 00:42:54;;;;;;;;;;;22.90;74.90;;;;;;5074385;28;1396;-68
2022/08/29 00:45:20;;;;;;;;;;;22.90;74.90;;;;;;5074887;28;1259;-68
2022/08/29 00:47:51;;;;;;;;;;;22.80;74.80;;;;;;5073734;28;1053;-68
2022/08/29 00:50:24;;;;;;;;;;;22.90;74.80;;;;;;5056953;28;1292;-68
2022/08/29 00:52:49;;;;;;;;;;;22.80;74.80;;;;;;5054618;28;1311;-68
2022/08/29 00:55:18;;;;;;;;;;;22.90;74.90;;;;;;5075028;28;1243;-68
2022/08/29 00:57:45;;;;;;;;;;;22.90;74.90;;;;;;5057634;28;1516;-68
2022/08/29 01:00:11;;;;;;;;;;;22.80;74.80;;;;;;5055504;28;2362;-68
2022/08/29 01:02:39;;;;;;;;;;;22.90;74.90;;;;;;5056227;28;1224;-68
2022/08/29 01:05:05;;;;;;;;;;;22.80;74.80;;;;;;5054301;28;1374;-69
2022/08/29 01:07:31;;;;;;;;;;;22.80;74.80;;;;;;5074528;28;1211;-68
2022/08/29 01:09:57;;;;;;;;;;;22.80;74.80;;;;;;5074298;28;1370;-68
2022/08/29 01:12:22;;;;;;;;;;;22.80;74.90;;;;;;5067756;22;3607;-71
2022/08/29 01:14:50;;;;;;;;;;;22.90;74.90;;;;;;5050853;28;1219;-71
2022/08/29 01:17:17;;;;;;;;;;;22.80;74.90;;;;;;5052453;28;1305;-70
2022/08/29 01:19:59;;;;;;;;;;;22.80;74.90;;;;;;5030453;28;1934;-71
2022/08/29 01:22:28;;;;;;;;;;;22.80;74.90;;;;;;5050193;28;1295;-71
2022/08/29 01:24:54;;;;;;;;;;;22.80;74.90;;;;;;5053328;28;1287;-70
2022/08/29 01:27:20;;;;;;;;;;;22.80;74.90;;;;;;5027844;28;1195;-69
2022/08/29 01:29:46;;;;;;;;;;;22.80;74.90;;;;;;5026072;28;1342;-70
2022/08/29 01:32:11;;;;;;;;;;;22.80;74.90;;;;;;5028463;28;1698;-69
2022/08/29 01:34:37;;;;;;;;;;;22.80;74.90;;;;;;5031815;28;1231;-70
2022/08/29 01:37:03;;;;;;;;;;;22.80;74.90;;;;;;5043425;28;1255;-70
2022/08/29 01:39:30;;;;;;;;;;;22.80;74.90;;;;;;5029173;28;1961;-70
2022/08/29 01:41:55;;;;;;;;;;;22.80;74.90;;;;;;5029672;28;1359;-70
2022/08/29 01:44:21;;;;;;;;;;;22.80;74.90;;;;;;5048758;28;1160;-71
2022/08/29 01:46:47;;;;;;;;;;;22.80;74.90;;;;;;5028522;28;1303;-70
2022/08/29 01:49:13;;;;;;;;;;;22.80;74.90;;;;;;5047676;28;1220;-71
2022/08/29 01:51:38;;;;;;;;;;;22.80;74.90;;;;;;5031082;28;1367;-69
2022/08/29 01:54:07;;;;;;;;;;;22.80;74.90;;;;;;5028193;28;1347;-70
2022/08/29 01:56:33;;;;;;;;;;;22.80;74.90;;;;;;5028055;28;1216;-70
2022/08/29 01:58:59;;;;;;;;;;;22.80;74.90;;;;;;5017098;28;1902;-70
2022/08/29 02:01:26;;;;;;;;;;;22.80;74.90;;;;;;5035964;28;1420;-70
2022/08/29 02:03:51;;;;;;;;;;;22.80;75.70;;;;;;5036002;28;1299;-69
2022/08/29 02:06:17;;;;;;;;;;;22.80;75.00;;;;;;5043047;28;1122;-70
2022/08/29 02:08:42;;;;;;;;;;;22.80;74.90;;;;;;5051137;28;1056;-69
2022/08/29 02:11:09;;;;;;;;;;;22.80;75.00;;;;;;5036039;28;1405;-69
2022/08/29 02:13:38;;;;;;;;;;;22.80;74.90;;;;;;5053444;28;1271;-69
2022/08/29 02:16:03;;;;;;;;;;;22.80;75.00;;;;;;5036051;28;1282;-70
2022/08/29 02:18:28;;;;;;;;;;;22.80;75.00;;;;;;5036009;28;1203;-69
2022/08/29 02:20:54;;;;;;;;;;;22.80;74.90;;;;;;5023935;28;1949;-69
2022/08/29 02:23:20;;;;;;;;;;;22.80;74.90;;;;;;5028822;28;1240;-69
2022/08/29 02:25:46;;;;;;;;;;;22.80;75.00;;;;;;5032506;28;1298;-69
2022/08/29 02:28:12;;;;;;;;;;;22.80;75.00;;;;;;5045302;28;1373;-69
2022/08/29 02:30:38;;;;;;;;;;;22.80;75.00;;;;;;5045164;28;1283;-69
2022/08/29 02:33:04;;;;;;;;;;;22.80;75.00;;;;;;5038533;28;1440;-69
2022/08/29 02:35:29;;;;;;;;;;;22.80;75.00;;;;;;5035686;28;1280;-69
2022/08/29 02:37:55;;;;;;;;;;;22.80;75.00;;;;;;5034502;28;1325;-69
2022/08/29 02:40:20;;;;;;;;;;;22.80;75.00;;;;;;5053198;28;1918;-69
2022/08/29 02:42:46;;;;;;;;;;;22.80;75.00;;;;;;5035009;28;1382;-72
2022/08/29 02:45:11;;;;;;;;;;;22.80;75.00;;;;;;5053257;28;1139;-70
2022/08/29 02:47:37;;;;;;;;;;;22.80;75.00;;;;;;5039682;28;1170;-71
2022/08/29 02:50:06;;;;;;;;;;;22.80;75.00;;;;;;5053292;28;1325;-71
2022/08/29 02:52:31;;;;;;;;;;;22.80;75.00;;;;;;5052369;28;1323;-71
2022/08/29 02:54:57;;;;;;;;;;;22.80;75.00;;;;;;5035464;28;1100;-71
2022/08/29 02:57:22;;;;;;;;;;;22.80;75.00;;;;;;5053038;28;1111;-69
2022/08/29 02:59:48;;;;;;;;;;;22.80;75.00;;;;;;5035299;28;1957;-70
2022/08/29 03:02:13;;;;;;;;;;;22.80;75.00;;;;;;5052382;28;1315;-71
2022/08/29 03:04:38;;;;;;;;;;;22.80;75.00;;;;;;5035068;28;1386;-71
2022/08/29 03:07:04;;;;;;;;;;;22.80;75.00;;;;;;5052904;28;1323;-70
2022/08/29 03:09:29;;;;;;;;;;;22.80;75.00;;;;;;5052773;28;1268;-70
2022/08/29 03:11:55;;;;;;;;;;;22.80;75.00;;;;;;5052205;28;1256;-70
2022/08/29 03:14:21;;;;;;;;;;;22.80;75.00;;;;;;5035100;28;1159;-71
2022/08/29 03:16:46;;;;;;;;;;;22.80;75.00;;;;;;5052892;28;1194;-70
2022/08/29 03:19:12;;;;;;;;;;;22.80;75.00;;;;;;5052772;28;1977;-71
2022/08/29 03:21:37;;;;;;;;;;;22.80;75.00;;;;;;5052142;28;1280;-71
2022/08/29 03:24:02;;;;;;;;;;;22.80;75.00;;;;;;5052598;28;1259;-69
2022/08/29 03:26:28;;;;;;;;;;;22.80;75.00;;;;;;5032692;28;1102;-69
2022/08/29 03:28:53;;;;;;;;;;;22.80;75.00;;;;;;5034985;28;1272;-70
2022/08/29 03:31:19;;;;;;;;;;;22.80;75.00;;;;;;5052520;28;1048;-70
2022/08/29 03:33:45;;;;;;;;;;;22.80;75.00;;;;;;5041654;28;2063;-70
2022/08/29 03:36:10;;;;;;;;;;;22.80;75.00;;;;;;5048459;28;1235;-70
2022/08/29 03:38:37;;;;;;;;;;;22.80;75.00;;;;;;5049584;28;1099;-70
2022/08/29 03:41:05;;;;;;;;;;;22.80;75.00;;;;;;5031420;28;1979;-71
2022/08/29 03:43:31;;;;;;;;;;;22.80;75.10;;;;;;5034440;28;1312;-71
2022/08/29 03:45:56;;;;;;;;;;;22.80;75.00;;;;;;5052587;28;811;-71
2022/08/29 03:48:22;;;;;;;;;;;22.80;75.00;;;;;;5030248;28;1780;-71
2022/08/29 03:50:48;;;;;;;;;;;22.80;75.00;;;;;;5057687;28;1957;-70
2022/08/29 03:53:13;;;;;;;;;;;22.80;75.00;;;;;;5070490;28;1272;-70
2022/08/29 03:55:39;;;;;;;;;;;22.80;75.10;;;;;;5064554;28;1890;-71
2022/08/29 03:58:04;;;;;;;;;;;22.80;75.00;;;;;;5064549;28;1075;-70
2022/08/29 04:00:30;;;;;;;;;;;22.80;75.00;;;;;;5065839;28;1967;-70
2022/08/29 04:02:57;;;;;;;;;;;22.80;75.00;;;;;;5043544;28;1262;-69
2022/08/29 04:05:22;;;;;;;;;;;22.80;75.10;;;;;;5042915;28;1302;-71
2022/08/29 04:07:49;;;;;;;;;;;22.80;75.00;;;;;;5054570;28;1114;-70
2022/08/29 04:10:22;;;;;;;;;;;22.80;75.00;;;;;;5055294;28;839;-71
2022/08/29 04:12:47;;;;;;;;;;;22.80;75.00;;;;;;5055669;28;1315;-71
2022/08/29 04:15:13;;;;;;;;;;;22.80;75.00;;;;;;5056350;28;1189;-70
2022/08/29 04:17:39;;;;;;;;;;;22.80;75.00;;;;;;5038170;28;1148;-70
2022/08/29 04:20:05;;;;;;;;;;;22.80;75.00;;;;;;5054271;28;1910;-69
2022/08/29 04:22:31;;;;;;;;;;;22.70;75.00;;;;;;5045908;28;1300;-70
2022/08/29 04:24:56;;;;;;;;;;;22.80;75.00;;;;;;5038260;28;803;-70
2022/08/29 04:27:21;;;;;;;;;;;22.70;75.00;;;;;;5046826;28;1116;-70
2022/08/29 04:29:47;;;;;;;;;;;22.70;75.00;;;;;;5036055;28;1021;-70
2022/08/29 04:32:13;;;;;;;;;;;22.80;75.00;;;;;;5035250;28;1229;-69
2022/08/29 04:34:39;;;;;;;;;;;22.80;75.00;;;;;;5018151;28;780;-70
2022/08/29 04:37:04;;;;;;;;;;;22.70;75.00;;;;;;5035815;28;1017;-71
2022/08/29 04:39:30;;;;;;;;;;;22.80;75.00;;;;;;5017986;28;1953;-72
2022/08/29 04:41:55;;;;;;;;;;;22.80;75.00;;;;;;5035356;28;1217;-69
2022/08/29 04:44:21;;;;;;;;;;;22.70;75.00;;;;;;5035619;28;871;-72
2022/08/29 04:46:46;;;;;;;;;;;22.80;75.00;;;;;;5035600;28;816;-72
2022/08/29 04:49:11;;;;;;;;;;;22.80;75.00;;;;;;5035490;28;946;-71
2022/08/29 04:51:37;;;;;;;;;;;22.70;75.00;;;;;;5035018;28;1295;-72
2022/08/29 04:54:03;;;;;;;;;;;22.70;75.00;;;;;;5017685;28;787;-70
2022/08/29 04:56:28;;;;;;;;;;;22.80;75.00;;;;;;5035463;28;829;-70
2022/08/29 04:58:54;;;;;;;;;;;22.70;75.00;;;;;;5017791;28;925;-71
2022/08/29 05:01:23;;;;;;;;;;;22.80;75.00;;;;;;5034229;28;1891;-71
2022/08/29 05:03:50;;;;;;;;;;;22.70;75.00;;;;;;5017628;28;1264;-70
2022/08/29 05:06:16;;;;;;;;;;;22.80;75.00;;;;;;5017795;28;856;-70
2022/08/29 05:08:42;;;;;;;;;;;22.80;75.00;;;;;;5001245;28;1346;-70
2022/08/29 05:11:08;;;;;;;;;;;22.80;75.00;;;;;;5017450;28;1148;-71
2022/08/29 05:13:34;;;;;;;;;;;22.80;75.00;;;;;;5017167;28;1298;-71
2022/08/29 05:16:03;;;;;;;;;;;22.70;75.00;;;;;;5001083;28;1173;-71
2022/08/29 05:18:28;;;;;;;;;;;22.70;74.90;;;;;;5017285;28;1005;-70
2022/08/29 05:20:54;;;;;;;;;;;22.70;74.90;;;;;;5028460;28;1956;-69
2022/08/29 05:23:20;;;;;;;;;;;22.80;75.00;;;;;;5053431;28;1345;-70
2022/08/29 05:25:45;;;;;;;;;;;22.70;74.90;;;;;;5053648;28;887;-69
2022/08/29 05:28:11;;;;;;;;;;;22.70;74.90;;;;;;5053264;28;1451;-70
2022/08/29 05:30:37;;;;;;;;;;;22.70;74.90;;;;;;5036941;28;854;-69
2022/08/29 05:33:03;;;;;;;;;;;22.80;74.90;;;;;;5036360;28;1358;-69
2022/08/29 05:35:29;;;;;;;;;;;22.70;74.90;;;;;;5036903;28;1029;-71
2022/08/29 05:37:54;;;;;;;;;;;22.80;74.90;;;;;;5036808;28;875;-72
2022/08/29 05:40:20;;;;;;;;;;;22.80;74.90;;;;;;5037589;28;1898;-73
2022/08/29 05:42:46;;;;;;;;;;;22.80;74.90;;;;;;5036943;28;1237;-72
2022/08/29 05:45:12;;;;;;;;;;;22.80;74.90;;;;;;5036919;28;879;-73
2022/08/29 05:47:37;;;;;;;;;;;22.70;74.90;;;;;;5054379;28;823;-74
2022/08/29 05:50:02;;;;;;;;;;;22.70;74.90;;;;;;5050715;28;972;-72
2022/08/29 05:52:28;;;;;;;;;;;22.80;74.90;;;;;;5031730;28;1355;-72
2022/08/29 05:54:53;;;;;;;;;;;22.70;74.80;;;;;;5054359;28;1066;-73
2022/08/29 05:57:20;;;;;;;;;;;22.80;74.90;;;;;;5054181;28;1054;-73
2022/08/29 05:59:46;;;;;;;;;;;22.80;74.90;;;;;;5019948;28;1890;-72
2022/08/29 06:02:12;;;;;;;;;;;22.70;74.80;;;;;;5053635;28;1323;-71
2022/08/29 06:04:37;;;;;;;;;;;22.80;74.80;;;;;;5054140;28;859;-71
2022/08/29 06:07:03;;;;;;;;;;;22.80;74.90;;;;;;5036345;28;812;-70
2022/08/29 06:09:29;;;;;;;;;;;22.70;74.90;;;;;;5036058;28;862;-71
2022/08/29 06:11:56;;;;;;;;;;;22.80;74.80;;;;;;5053487;28;1299;-71
2022/08/29 06:14:21;;;;;;;;;;;22.70;74.70;;;;;;5053985;28;795;-71
2022/08/29 06:16:47;;;;;;;;;;;22.80;74.80;;;;;;5035720;28;991;-71
2022/08/29 06:19:12;;;;;;;;;;;22.80;74.80;;;;;;5053683;28;2052;-71
2022/08/29 06:21:38;;;;;;;;;;;22.80;74.80;;;;;;5035426;28;1377;-71
2022/08/29 06:24:04;;;;;;;;;;;22.80;74.70;;;;;;5016031;28;946;-71
2022/08/29 06:26:30;;;;;;;;;;;22.70;74.70;;;;;;5035861;28;1088;-71
2022/08/29 06:28:55;;;;;;;;;;;22.80;74.70;;;;;;5053545;28;819;-70
2022/08/29 06:31:24;;;;;;;;;;;22.80;74.70;;;;;;5035211;28;868;-70
2022/08/29 06:33:50;;;;;;;;;;;22.80;74.70;;;;;;5036014;28;1201;-70
2022/08/29 06:36:16;;;;;;;;;;;22.70;74.70;;;;;;5035495;28;925;-71
2022/08/29 06:38:41;;;;;;;;;;;22.70;74.70;;;;;;5035465;28;978;-72
2022/08/29 06:41:08;;;;;;;;;;;22.80;74.70;;;;;;5053303;28;1910;-71
2022/08/29 06:43:33;;;;;;;;;;;22.80;74.80;;;;;;5035084;28;1361;-72
2022/08/29 06:45:59;;;;;;;;;;;22.80;74.70;;;;;;5053166;28;795;-71
2022/08/29 06:48:24;;;;;;;;;;;22.70;74.70;;;;;;5053289;28;859;-70
2022/08/29 06:50:51;;;;;;;;;;;22.80;74.70;;;;;;5035331;28;791;-70
2022/08/29 06:53:16;;;;;;;;;;;22.80;74.80;;;;;;5035061;28;1331;-69
2022/08/29 06:55:42;;;;;;;;;;;22.80;74.70;;;;;;5035331;28;1083;-70
2022/08/29 06:58:07;;;;;;;;;;;22.70;74.70;;;;;;5053023;28;1048;-70
2022/08/29 07:00:33;;;;;;;;;;;22.80;74.80;;;;;;5035004;28;1942;-70
2022/08/29 07:02:58;;;;;;;;;;;22.80;74.80;;;;;;5034663;28;1301;-70
2022/08/29 07:05:24;;;;;;;;;;;22.80;74.80;;;;;;5053024;28;1068;-72
2022/08/29 07:07:49;;;;;;;;;;;22.70;74.70;;;;;;5018678;28;1069;-71
2022/08/29 07:10:15;;;;;;;;;;;22.80;74.80;;;;;;5035190;28;1052;-70
2022/08/29 07:12:40;;;;;;;;;;;22.70;74.70;;;;;;5047181;22;3753;-66
2022/08/29 07:15:06;;;;;;;;;;;22.70;74.80;;;;;;5052349;28;929;-66
2022/08/29 07:17:31;;;;;;;;;;;22.70;74.80;;;;;;5018325;28;1418;-66
2022/08/29 07:19:57;;;;;;;;;;;22.80;74.80;;;;;;5052647;28;1910;-66
2022/08/29 07:22:22;;;;;;;;;;;22.80;74.80;;;;;;5051987;28;1248;-66
2022/08/29 07:24:47;;;;;;;;;;;22.70;74.80;;;;;;5052675;28;791;-66
2022/08/29 07:27:13;;;;;;;;;;;22.70;74.70;;;;;;5034943;28;1229;-66
2022/08/29 07:29:39;;;;;;;;;;;22.80;74.70;;;;;;5052436;28;997;-66
2022/08/29 07:32:04;;;;;;;;;;;22.70;74.70;;;;;;5052683;28;819;-66
2022/08/29 07:34:30;;;;;;;;;;;22.70;74.70;;;;;;5052450;28;1196;-66
2022/08/29 07:36:55;;;;;;;;;;;22.80;74.70;;;;;;5034734;28;1397;-66
2022/08/29 07:39:21;;;;;;;;;;;22.80;74.70;;;;;;5052523;28;1906;-65
2022/08/29 07:41:47;;;;;;;;;;;22.70;74.60;;;;;;5052831;28;807;-66
2022/08/29 07:44:12;;;;;;;;;;;22.70;74.50;;;;;;5034395;28;1170;-67
2022/08/29 07:46:38;;;;;;;;;;;22.80;74.60;;;;;;5034697;28;823;-66
2022/08/29 07:49:03;;;;;;;;;;;22.80;74.70;;;;;;5034714;28;803;-66
2022/08/29 07:51:29;;;;;;;;;;;22.70;74.70;;;;;;5052194;28;771;-66
2022/08/29 07:53:54;;;;;;;;;;;22.70;74.60;;;;;;5034383;28;1162;-66
2022/08/29 07:56:24;;;;;;;;;;;22.80;74.70;;;;;;5034710;28;867;-67
2022/08/29 07:58:50;;;;;;;;;;;22.80;74.60;;;;;;5034451;28;866;-67
2022/08/29 08:01:15;;;;;;;;;;;22.80;74.70;;;;;;5034470;28;1950;-66
2022/08/29 08:03:41;;;;;;;;;;;22.70;74.60;;;;;;5052115;28;1189;-66
2022/08/29 08:06:07;;;;;;;;;;;22.70;74.70;;;;;;5052483;28;863;-67
2022/08/29 08:08:33;;;;;;;;;;;22.80;74.70;;;;;;5034538;28;859;-66
2022/08/29 08:10:58;;;;;;;;;;;22.80;74.70;;;;;;5034433;28;843;-67
2022/08/29 08:13:24;;;;;;;;;;;22.80;74.70;;;;;;5051712;28;1227;-66
2022/08/29 08:15:49;;;;;;;;;;;22.80;74.70;;;;;;5052243;28;886;-66
2022/08/29 08:18:15;;;;;;;;;;;22.70;74.30;;;;;;5052355;28;890;-66
2022/08/29 08:20:47;;;;;;;;;;;22.70;73.50;;;;;;5051985;28;1960;-66
2022/08/29 08:23:15;;;;;;;;;;;22.80;72.20;;;;;;5034310;28;1217;-66
2022/08/29 08:25:41;;;;;;;;;;;22.70;72.10;;;;;;5052164;28;906;-67
2022/08/29 08:28:06;;;;;;;;;;;22.70;71.50;;;;;;5052393;28;1229;-67
2022/08/29 08:30:33;;;;;;;;;;;22.70;70.80;;;;;;5051426;28;1184;-67
2022/08/29 08:32:58;;;;;;;;;;;22.70;70.30;;;;;;5004927;28;1177;-67
2022/08/29 08:35:24;;;;;;;;;;;22.70;70.40;;;;;;5012495;28;2181;-66
2022/08/29 08:37:50;;;;;;;;;;;22.70;70.50;;;;;;5031300;28;2094;-67
2022/08/29 08:40:18;;;;;;;;;;;22.70;71.00;;;;;;5017975;28;1906;-67
2022/08/29 08:42:44;;;;;;;;;;;22.70;70.80;;;;;;5001431;28;1217;-67
2022/08/29 08:45:18;;;;;;;;;;;22.70;71.30;;;;;;5035737;28;1001;-67
2022/08/29 08:47:50;;;;;;;;;;;22.70;71.00;;;;;;5017901;28;820;-67
2022/08/29 08:50:19;;;;;;;;;;;22.70;71.10;;;;;;5035434;28;823;-67
2022/08/29 08:52:49;;;;;;;;;;;22.70;71.30;;;;;;5035160;28;1177;-67
2022/08/29 08:55:30;;;;;;;;;;;22.70;71.00;;;;;;5017578;28;836;-67
2022/08/29 08:58:08;;;;;;;;;;;22.70;70.90;;;;;;5035446;28;1010;-67
2022/08/29 09:00:36;;;;;;;;;;;22.60;70.90;;;;;;5017783;28;1902;-67
2022/08/29 09:03:13;;;;;;;;;;;22.60;70.80;;;;;;5017425;28;1268;-67
2022/08/29 09:05:49;;;;;;;;;;;22.60;70.70;;;;;;5017426;28;867;-67
2022/08/29 09:08:20;;;;;;;;;;;22.70;71.20;;;;;;5017564;28;949;-67
2022/08/29 09:10:54;;;;;;;;;;;22.60;70.70;;;;;;5001087;28;1207;-67
2022/08/29 09:13:20;;;;;;;;;;;22.60;70.30;;;;;;5017166;28;1146;-67
2022/08/29 09:15:46;;;;;;;;;;;22.60;70.80;;;;;;5017290;28;1200;-67
2022/08/29 09:18:47;;;;;;;;;;;22.60;70.30;;;;;;5000887;28;824;-67
2022/08/29 09:21:13;;;;;;;;;;;22.60;70.60;;;;;;4987157;28;1907;-67
2022/08/29 09:23:43;;;;;;;;;;;22.60;70.20;;;;;;5024432;28;1248;-67
2022/08/29 09:26:08;;;;;;;;;;;22.60;70.20;;;;;;5036974;28;819;-67
2022/08/29 09:28:34;;;;;;;;;;;22.60;70.40;;;;;;5054640;28;1499;-67
2022/08/29 09:31:13;;;;;;;;;;;22.60;70.20;;;;;;5023134;28;1825;-67
2022/08/29 09:33:40;;;;;;;;;;;22.60;69.70;;;;;;5008552;28;1544;-67
2022/08/29 09:36:05;;;;;;;;;;;22.60;68.70;;;;;;5014725;28;838;-67
2022/08/29 09:38:31;;;;;;;;;;;22.60;69.50;;;;;;5029931;28;1963;-67
2022/08/29 09:40:56;;;;;;;;;;;22.60;69.40;;;;;;5011961;28;1914;-66
2022/08/29 09:43:42;;;;;;;;;;;22.60;69.60;;;;;;5033652;28;1794;-67
2022/08/29 09:46:07;;;;;;;;;;;22.60;69.50;;;;;;5031178;28;1089;-66
2022/08/29 09:48:33;;;;;;;;;;;22.60;69.20;;;;;;5034367;28;1186;-66
2022/08/29 09:51:11;;;;;;;;;;;22.60;69.70;;;;;;5016378;28;934;-67
2022/08/29 09:53:36;;;;;;;;;;;22.60;69.70;;;;;;5012732;28;1528;-66
2022/08/29 09:56:03;;;;;;;;;;;22.60;68.90;;;;;;5034415;28;1267;-66
2022/08/29 09:58:32;;;;;;;;;;;22.60;68.90;;;;;;5016641;28;839;-67
2022/08/29 10:00:59;;;;;;;;;;;22.60;69.20;;;;;;4999690;28;1969;-66
2022/08/29 10:03:25;;;;;;;;;;;22.60;69.20;;;;;;5015671;28;1323;-66
2022/08/29 10:05:58;;;;;;;;;;;22.60;69.00;;;;;;5033695;28;1257;-67
2022/08/29 10:08:23;;;;;;;;;;;22.60;68.80;;;;;;5000118;28;1592;-66
2022/08/29 10:10:50;;;;;;;;;;;22.50;68.20;;;;;;5033858;28;851;-66
2022/08/29 10:13:21;;;;;;;;;;;22.50;68.80;;;;;;5033770;28;1169;-66
2022/08/29 10:16:12;;;;;;;;;;;22.50;69.00;;;;;;5016242;28;872;-66
2022/08/29 10:18:48;;;;;;;;;;;22.50;69.20;;;;;;5010400;28;1329;-66
2022/08/29 10:21:20;;;;;;;;;;;22.50;69.30;;;;;;5024596;28;1902;-66
2022/08/29 10:23:48;;;;;;;;;;;22.50;69.40;;;;;;5033382;28;1253;-66
2022/08/29 10:26:32;;;;;;;;;;;22.50;69.00;;;;;;5033768;28;1092;-67
2022/08/29 10:28:57;;;;;;;;;;;22.50;69.00;;;;;;5053245;28;873;-67
2022/08/29 10:31:29;;;;;;;;;;;22.50;68.80;;;;;;5035187;28;1338;-66
2022/08/29 10:34:14;;;;;;;;;;;22.50;69.00;;;;;;5018701;28;2209;-66
2022/08/29 10:36:39;;;;;;;;;;;22.50;69.00;;;;;;5015721;28;1274;-66
2022/08/29 10:39:12;;;;;;;;;;;22.50;69.20;;;;;;5015552;28;1084;-67
2022/08/29 10:41:44;;;;;;;;;;;22.50;69.10;;;;;;5015149;28;957;-67
2022/08/29 10:44:29;;;;;;;;;;;22.50;69.00;;;;;;5015305;28;1884;-67
2022/08/29 10:47:18;;;;;;;;;;;22.50;68.30;;;;;;4978033;28;1267;-67
2022/08/29 10:49:49;;;;;;;;;;;22.50;68.20;;;;;;5004239;28;1199;-67
2022/08/29 10:52:21;;;;;;;;;;;22.50;68.20;;;;;;5033176;28;1236;-67
2022/08/29 10:55:05;;;;;;;;;;;22.50;68.40;;;;;;5015294;28;1277;-66
2022/08/29 10:57:36;;;;;;;;;;;22.50;68.60;;;;;;5032465;28;946;-66
2022/08/29 11:00:06;;;;;;;;;;;22.50;68.20;;;;;;5032678;28;1959;-67
2022/08/29 11:02:51;;;;;;;;;;;22.50;68.40;;;;;;5014783;28;1316;-67
2022/08/29 11:05:22;;;;;;;;;;;22.50;68.50;;;;;;5033136;28;811;-67
2022/08/29 11:07:56;;;;;;;;;;;22.50;67.20;;;;;;5015214;28;868;-66
2022/08/29 11:10:23;;;;;;;;;;;22.40;66.00;;;;;;5013437;28;1201;-66
2022/08/29 11:12:53;;;;;;;;;;;22.50;68.10;;;;;;5002604;28;1364;-66
2022/08/29 11:15:33;;;;;;;;;;;22.40;67.70;;;;;;5023962;28;1329;-66
2022/08/29 11:18:11;;;;;;;;;;;22.50;68.00;;;;;;5006862;28;1098;-68
2022/08/29 11:20:38;;;;;;;;;;;22.40;68.20;;;;;;5025728;28;1957;-66
2022/08/29 11:23:07;;;;;;;;;;;22.40;69.20;;;;;;5032010;28;1308;-67
2022/08/29 11:25:33;;;;;;;;;;;22.40;68.60;;;;;;5015025;28;1428;-66
2022/08/29 11:28:05;;;;;;;;;;;22.50;68.60;;;;;;4998726;28;1124;-66
2022/08/29 11:30:35;;;;;;;;;;;22.50;68.80;;;;;;4998674;28;1128;-66
2022/08/29 11:33:07;;;;;;;;;;;22.50;68.50;;;;;;5032438;28;1225;-66
2022/08/29 11:35:39;;;;;;;;;;;22.50;68.40;;;;;;5032502;28;1084;-66
2022/08/29 11:38:07;;;;;;;;;;;22.50;68.60;;;;;;5032751;28;870;-66
2022/08/29 11:40:39;;;;;;;;;;;22.50;69.00;;;;;;5032572;28;1952;-66
2022/08/29 11:43:04;;;;;;;;;;;22.50;68.90;;;;;;5032169;28;1307;-66
2022/08/29 11:45:34;;;;;;;;;;;22.50;69.10;;;;;;5014948;28;891;-66
2022/08/29 11:48:00;;;;;;;;;;;22.50;68.90;;;;;;5032379;28;934;-66
2022/08/29 11:50:27;;;;;;;;;;;22.50;69.30;;;;;;5015067;28;922;-66
2022/08/29 11:53:05;;;;;;;;;;;22.50;69.30;;;;;;5014614;28;1190;-66
2022/08/29 11:55:38;;;;;;;;;;;22.50;69.40;;;;;;5014641;28;1335;-66
2022/08/29 11:58:04;;;;;;;;;;;22.50;69.50;;;;;;4998513;28;1105;-66
2022/08/29 12:00:31;;;;;;;;;;;22.50;69.40;;;;;;5032242;28;1903;-66
2022/08/29 12:02:57;;;;;;;;;;;22.50;69.30;;;;;;5032287;28;1189;-67
2022/08/29 12:05:28;;;;;;;;;;;22.50;69.00;;;;;;5014703;28;831;-67
2022/08/29 12:07:56;;;;;;;;;;;22.50;69.00;;;;;;5032406;28;998;-67
2022/08/29 12:10:27;;;;;;;;;;;22.50;69.10;;;;;;5035263;28;970;-67
2022/08/29 12:12:55;;;;;;;;;;;22.50;69.00;;;;;;5035317;28;1288;-67
2022/08/29 12:15:36;;;;;;;;;;;22.50;69.00;;;;;;5018193;28;1180;-68
2022/08/29 12:18:15;;;;;;;;;;;22.50;69.00;;;;;;5036132;28;945;-67
2022/08/29 12:20:40;;;;;;;;;;;22.50;69.00;;;;;;5036069;28;1965;-67
2022/08/29 12:23:09;;;;;;;;;;;22.50;68.90;;;;;;5035888;28;1225;-67
2022/08/29 12:25:53;;;;;;;;;;;22.50;68.90;;;;;;5036090;28;978;-68
2022/08/29 12:28:26;;;;;;;;;;;22.50;68.50;;;;;;5026548;28;1295;-69
2022/08/29 12:31:01;;;;;;;;;;;22.50;68.20;;;;;;5009712;28;1220;-70
2022/08/29 12:33:42;;;;;;;;;;;22.50;68.50;;;;;;5008713;28;1339;-68
2022/08/29 12:36:26;;;;;;;;;;;22.50;68.60;;;;;;4992214;28;1361;-68
2022/08/29 12:38:52;;;;;;;;;;;22.50;68.60;;;;;;5018949;28;1251;-68
2022/08/29 12:41:17;;;;;;;;;;;22.50;68.60;;;;;;5005263;28;1898;-68
2022/08/29 12:43:43;;;;;;;;;;;22.50;68.60;;;;;;5025465;28;1364;-67
2022/08/29 12:46:10;;;;;;;;;;;22.50;68.60;;;;;;5009389;28;1243;-68
2022/08/29 12:48:40;;;;;;;;;;;22.50;68.50;;;;;;5008381;28;1289;-67
2022/08/29 12:51:06;;;;;;;;;;;22.60;68.40;;;;;;5007768;28;1319;-67
2022/08/29 12:53:33;;;;;;;;;;;22.50;68.40;;;;;;5009116;28;1303;-68
2022/08/29 12:56:12;;;;;;;;;;;22.50;68.30;;;;;;5035263;28;893;-68
2022/08/29 12:58:42;;;;;;;;;;;22.50;68.40;;;;;;5017858;28;910;-68
2022/08/29 13:01:15;;;;;;;;;;;22.50;68.50;;;;;;5017187;28;1906;-67
2022/08/29 13:03:41;;;;;;;;;;;22.50;69.40;;;;;;5017544;28;1189;-67
2022/08/29 13:06:08;;;;;;;;;;;22.60;68.40;;;;;;5017450;28;871;-67
2022/08/29 13:08:35;;;;;;;;;;;22.60;68.10;;;;;;5017442;28;827;-68
2022/08/29 13:11:06;;;;;;;;;;;22.50;68.10;;;;;;5017357;28;874;-69
2022/08/29 13:13:32;;;;;;;;;;;22.60;68.40;;;;;;5030546;28;2110;-69
2022/08/29 13:16:00;;;;;;;;;;;22.60;68.70;;;;;;5034499;28;1329;-69
2022/08/29 13:18:25;;;;;;;;;;;22.60;68.50;;;;;;5016746;28;1135;-67
2022/08/29 13:21:09;;;;;;;;;;;22.60;68.30;;;;;;5025802;28;1902;-68
2022/08/29 13:23:36;;;;;;;;;;;22.60;68.40;;;;;;5054628;28;1204;-69
2022/08/29 13:26:03;;;;;;;;;;;22.60;68.30;;;;;;5035146;28;879;-68
2022/08/29 13:28:29;;;;;;;;;;;22.60;68.30;;;;;;5036929;28;1126;-67
2022/08/29 13:31:09;;;;;;;;;;;22.60;68.50;;;;;;5054239;28;820;-67
2022/08/29 13:33:35;;;;;;;;;;;22.60;68.50;;;;;;5054428;28;1251;-67
2022/08/29 13:36:00;;;;;;;;;;;22.60;68.70;;;;;;5036574;28;997;-68
2022/08/29 13:38:26;;;;;;;;;;;22.60;68.70;;;;;;5036572;28;895;-67
2022/08/29 13:40:52;;;;;;;;;;;22.60;68.70;;;;;;5036402;28;1950;-69
2022/08/29 13:43:37;;;;;;;;;;;22.60;68.80;;;;;;5036167;28;1187;-68
2022/08/29 13:46:02;;;;;;;;;;;22.60;68.80;;;;;;5036268;28;859;-69
2022/08/29 13:48:28;;;;;;;;;;;22.60;68.80;;;;;;5054264;28;903;-68
2022/08/29 13:50:53;;;;;;;;;;;22.60;68.80;;;;;;5036151;28;830;-68
2022/08/29 13:53:19;;;;;;;;;;;22.60;68.60;;;;;;5053930;28;1352;-68
2022/08/29 13:55:44;;;;;;;;;;;22.60;68.70;;;;;;5054156;28;1002;-68
2022/08/29 13:58:10;;;;;;;;;;;22.60;68.60;;;;;;5054183;28;898;-69
2022/08/29 14:00:35;;;;;;;;;;;22.60;68.70;;;;;;5036248;28;1894;-68
2022/08/29 14:03:01;;;;;;;;;;;22.60;68.30;;;;;;5053588;28;1153;-69
2022/08/29 14:05:30;;;;;;;;;;;22.60;68.00;;;;;;5035953;28;821;-68
2022/08/29 14:07:56;;;;;;;;;;;22.60;67.50;;;;;;5053888;28;808;-68
2022/08/29 14:10:21;;;;;;;;;;;22.60;67.70;;;;;;5053863;28;866;-68
2022/08/29 14:12:47;;;;;;;;;;;22.60;67.60;;;;;;5053164;28;1181;-68
2022/08/29 14:15:16;;;;;;;;;;;22.70;67.30;;;;;;5053740;28;1056;-68
2022/08/29 14:17:41;;;;;;;;;;;22.70;67.60;;;;;;5036500;28;902;-68
2022/08/29 14:20:11;;;;;;;;;;;22.70;67.80;;;;;;5053120;28;1955;-68
2022/08/29 14:22:36;;;;;;;;;;;22.70;67.70;;;;;;5035853;28;1169;-68
2022/08/29 14:25:03;;;;;;;;;;;22.70;67.60;;;;;;5053686;28;974;-69
2022/08/29 14:27:28;;;;;;;;;;;22.70;68.00;;;;;;5035628;28;1003;-68
2022/08/29 14:29:54;;;;;;;;;;;22.70;67.70;;;;;;5053411;28;780;-69
2022/08/29 14:32:19;;;;;;;;;;;22.70;68.00;;;;;;5053079;28;1228;-69
2022/08/29 14:34:44;;;;;;;;;;;22.70;67.20;;;;;;5053140;28;776;-68
2022/08/29 14:37:11;;;;;;;;;;;22.70;67.00;;;;;;5035789;28;740;-68